KDPA

Dupage Airport

Chicago/West Chicago, Illinois, USA
METAR KDPA 232322Z 33009KT 10SM OVC016 M02/M04 A3006 RMK AO2 T10171044
Observed Flight Rules
Jan-23 @ 23:22 UTC (19 minutes ago) Marginal Visual Flight Rules
Wind Visibility Clouds
330° at 9 knots 10 miles
  • Overcast at 1,600' AGL
Temperatures Readings
Current -2°C / 28°F
Dewpoint -4°C / 25°F
Humidity 86%
Altimeter 30.06" Hg
Pressure 1018 hPa
Elevation 231
METAR KDPA 232322Z 33009KT 10SM OVC016 M02/M04 A3006 RMK AO2 T10171044
Observed Flight Rules
Jan-23 @ 23:22 UTC
(19 minutes ago)
MVFR
Wind Visibility
330° at 9 knots 10 miles
Clouds
  • Overcast at 1,600' AGL
Temperature Dewpoint
-2°C / 28°F -4°C / 25°F
Humidity Altimeter Pressure
86% 30.06" Hg 1018 hPa